• Join FlightAware (Why Join?)
  • Login
  • US Flag 
06:06AM EDT


 

Airport Tracker/Info


-or-


 

Live Flight TrackerFlight Track Log ✈ N534M ✈ 01-May-2013 ✈ KBMI - KDPA

Flight Track Log - Related Links

Times and Time Zones

All times are in EDT time to prevent confusion due to time zone crossing. See the N534M flight status page for this flight to view local times or setup timezone preferences in your user account.

Time Position Orientation Groundspeed Altitude Reporting Facility
EDT Latitude Longitude Course Direction KTS MPH feet Rate Location/Type
07:27PM 40.5639 -88.8928 25° Northeast 180 207 6,900  Level Chicago Center
07:28PM 40.6117 -88.8633 25° Northeast 188 216 8,700 960 Climbing Chicago Center
07:29PM 40.6781 -88.8203 26° Northeast 245 282 8,900 60 Climbing Chicago Center
07:30PM 40.7481 -88.7781 25° Northeast 273 314 8,900  Level Chicago Center
07:31PM 40.8523 -88.7271 North  Level FlightAware Approximate
07:31PM 40.8189 -88.7336 25° Northeast 281 323 8,900  Level Chicago Center
07:32PM 40.8964 -88.7214 North 288 331 8,900 -360 Level Chicago Center
07:33PM 40.9764 -88.7092 North 287 330 8,200 -900 Descending Chicago Center
07:34PM 41.0722 -88.6958 North 290 334 7,100 -1,140 Descending Chicago Center
07:35PM 41.1489 -88.6836 North 282 325 5,900 -1,080 Descending Chicago Center
07:36PM 41.2269 -88.6731 North 282 325 4,900 -540 Descending Chicago Center
07:37PM 41.3039 -88.6622 North 280 322 4,900  Level Chicago Center
07:38PM 41.3794 -88.6500 North 276 318 4,900  Level Chicago Center
07:39PM 41.4542 -88.6386 North 273 314 4,900  Level Chicago Center
07:40PM 41.5336 -88.5889 25° Northeast 269 310 4,900  Level Chicago Center
07:41PM 41.5958 -88.5325 34° Northeast 270 311 4,900 -360 Level Chicago Center
07:42PM 41.6567 -88.4764 35° Northeast 268 308 4,200 -480 Descending Chicago Center
07:43PM 41.7189 -88.4211 34° Northeast 268 308 3,900 -480 Descending Chicago Center
07:44PM 41.7817 -88.3653 34° Northeast 269 310 3,300 -840 Descending Chicago Center
07:45PM 41.8569 -88.3164 26° Northeast 259 298 2,300 -780 Descending Chicago Center
07:46PM 41.9169 -88.2831 22° Northeast 245 282 1,700 1,260 Descending Chicago Center
07:47PM 41.9281 -88.2286 75° East 235 270 5,000 3,180 Climbing Chicago Center
07:49PM 41.9000 -88.2333 217° Southwest  Level FlightAware Approximate